sensor_id;sensor_type;location;lat;lon;timestamp;pressure;altitude;pressure_sealevel;temperature;humidity
5522;BME280;2783;48.730;8.006;2023-09-19T00:01:07;99743.63;;;19.12;100.00
5522;BME280;2783;48.730;8.006;2023-09-19T00:03:37;99736.72;;;19.08;100.00
5522;BME280;2783;48.730;8.006;2023-09-19T00:06:03;99741.97;;;19.10;100.00
5522;BME280;2783;48.730;8.006;2023-09-19T00:08:30;99741.03;;;19.11;100.00
5522;BME280;2783;48.730;8.006;2023-09-19T00:10:56;99741.22;;;19.08;100.00
5522;BME280;2783;48.730;8.006;2023-09-19T00:13:23;99741.03;;;19.11;100.00
5522;BME280;2783;48.730;8.006;2023-09-19T00:15:50;99741.22;;;19.08;100.00
5522;BME280;2783;48.730;8.006;2023-09-19T00:18:16;99740.28;;;19.09;100.00
5522;BME280;2783;48.730;8.006;2023-09-19T00:20:44;99736.38;;;19.13;100.00
5522;BME280;2783;48.730;8.006;2023-09-19T00:23:13;99738.00;;;19.15;100.00
5522;BME280;2783;48.730;8.006;2023-09-19T00:25:39;99745.22;;;19.15;100.00
5522;BME280;2783;48.730;8.006;2023-09-19T00:28:05;99737.56;;;19.09;100.00
5522;BME280;2783;48.730;8.006;2023-09-19T00:30:33;99736.94;;;19.05;100.00
5522;BME280;2783;48.730;8.006;2023-09-19T00:32:58;99744.16;;;19.05;100.00
5522;BME280;2783;48.730;8.006;2023-09-19T00:35:24;99739.97;;;19.01;100.00
5522;BME280;2783;48.730;8.006;2023-09-19T00:37:50;99736.50;;;18.99;100.00
5522;BME280;2783;48.730;8.006;2023-09-19T00:40:16;99738.44;;;18.97;100.00
5522;BME280;2783;48.730;8.006;2023-09-19T00:42:46;99738.78;;;18.92;100.00
5522;BME280;2783;48.730;8.006;2023-09-19T00:45:15;99742.75;;;18.87;100.00
5522;BME280;2783;48.730;8.006;2023-09-19T00:47:43;99745.69;;;18.84;100.00
5522;BME280;2783;48.730;8.006;2023-09-19T00:50:09;99750.53;;;18.79;100.00
5522;BME280;2783;48.730;8.006;2023-09-19T00:52:39;99739.97;;;18.76;100.00
5522;BME280;2783;48.730;8.006;2023-09-19T00:55:08;99749.97;;;18.74;100.00
5522;BME280;2783;48.730;8.006;2023-09-19T00:57:36;99752.13;;;18.69;100.00
5522;BME280;2783;48.730;8.006;2023-09-19T01:00:37;99756.66;;;18.68;100.00
5522;BME280;2783;48.730;8.006;2023-09-19T01:03:03;99751.59;;;18.64;100.00
5522;BME280;2783;48.730;8.006;2023-09-19T01:05:31;99757.84;;;18.64;100.00
5522;BME280;2783;48.730;8.006;2023-09-19T01:07:58;99757.63;;;18.67;100.00
5522;BME280;2783;48.730;8.006;2023-09-19T01:10:24;99765.59;;;18.69;100.00
5522;BME280;2783;48.730;8.006;2023-09-19T01:13:16;99763.25;;;18.64;100.00
5522;BME280;2783;48.730;8.006;2023-09-19T01:19:19;99773.16;;;18.64;100.00
5522;BME280;2783;48.730;8.006;2023-09-19T01:21:57;99773.16;;;18.64;100.00
5522;BME280;2783;48.730;8.006;2023-09-19T01:27:27;99776.38;;;18.69;100.00
5522;BME280;2783;48.730;8.006;2023-09-19T01:30:24;99772.53;;;18.73;100.00
5522;BME280;2783;48.730;8.006;2023-09-19T01:32:53;99770.56;;;18.75;100.00
5522;BME280;2783;48.730;8.006;2023-09-19T01:35:19;99772.31;;;18.76;100.00
5522;BME280;2783;48.730;8.006;2023-09-19T01:37:45;99779.41;;;18.77;100.00
5522;BME280;2783;48.730;8.006;2023-09-19T01:40:17;99779.63;;;18.74;100.00
5522;BME280;2783;48.730;8.006;2023-09-19T01:48:57;99787.16;;;18.69;100.00
5522;BME280;2783;48.730;8.006;2023-09-19T01:51:43;99781.78;;;18.69;100.00
5522;BME280;2783;48.730;8.006;2023-09-19T01:54:12;99789.75;;;18.70;100.00
5522;BME280;2783;48.730;8.006;2023-09-19T01:59:48;99801.63;;;18.68;100.00
5522;BME280;2783;48.730;8.006;2023-09-19T02:02:18;99804.09;;;18.71;100.00
5522;BME280;2783;48.730;8.006;2023-09-19T02:04:48;99798.81;;;18.69;100.00
5522;BME280;2783;48.730;8.006;2023-09-19T02:07:14;99803.09;;;18.72;100.00
5522;BME280;2783;48.730;8.006;2023-09-19T02:09:40;99803.31;;;18.69;100.00
5522;BME280;2783;48.730;8.006;2023-09-19T02:12:09;99814.31;;;18.66;100.00
5522;BME280;2783;48.730;8.006;2023-09-19T02:14:34;99812.59;;;18.65;100.00
5522;BME280;2783;48.730;8.006;2023-09-19T02:17:02;99817.03;;;18.66;100.00
5522;BME280;2783;48.730;8.006;2023-09-19T02:19:28;99831.16;;;18.69;100.00
5522;BME280;2783;48.730;8.006;2023-09-19T02:21:55;99823.16;;;18.68;100.00
5522;BME280;2783;48.730;8.006;2023-09-19T02:24:20;99829.31;;;18.70;100.00
5522;BME280;2783;48.730;8.006;2023-09-19T02:26:46;99833.50;;;18.74;100.00
5522;BME280;2783;48.730;8.006;2023-09-19T02:29:12;99833.31;;;18.77;100.00
5522;BME280;2783;48.730;8.006;2023-09-19T02:31:38;99830.50;;;18.78;100.00
5522;BME280;2783;48.730;8.006;2023-09-19T02:34:04;99831.16;;;18.82;100.00
5522;BME280;2783;48.730;8.006;2023-09-19T02:36:31;99830.00;;;18.86;100.00
5522;BME280;2783;48.730;8.006;2023-09-19T02:38:57;99827.06;;;18.89;100.00
5522;BME280;2783;48.730;8.006;2023-09-19T02:41:22;99821.69;;;18.89;100.00
5522;BME280;2783;48.730;8.006;2023-09-19T02:43:48;99827.06;;;18.89;100.00
5522;BME280;2783;48.730;8.006;2023-09-19T02:46:13;99819.09;;;18.87;100.00
5522;BME280;2783;48.730;8.006;2023-09-19T02:48:39;99824.06;;;18.93;100.00
5522;BME280;2783;48.730;8.006;2023-09-19T02:51:04;99828.38;;;18.96;100.00
5522;BME280;2783;48.730;8.006;2023-09-19T02:53:30;99831.91;;;18.96;100.00
5522;BME280;2783;48.730;8.006;2023-09-19T02:55:57;99838.19;;;18.97;100.00
5522;BME280;2783;48.730;8.006;2023-09-19T02:58:22;99832.47;;;19.01;100.00
5522;BME280;2783;48.730;8.006;2023-09-19T03:00:50;99833.44;;;19.00;100.00
5522;BME280;2783;48.730;8.006;2023-09-19T03:03:16;99837.00;;;19.01;100.00
5522;BME280;2783;48.730;8.006;2023-09-19T03:05:42;99833.34;;;19.02;100.00
5522;BME280;2783;48.730;8.006;2023-09-19T03:08:13;99828.81;;;19.02;100.00
5522;BME280;2783;48.730;8.006;2023-09-19T03:10:40;99834.22;;;19.02;100.00
5522;BME280;2783;48.730;8.006;2023-09-19T03:13:06;99844.13;;;19.02;100.00
5522;BME280;2783;48.730;8.006;2023-09-19T03:15:35;99848.75;;;19.00;100.00
5522;BME280;2783;48.730;8.006;2023-09-19T03:18:04;99849.06;;;18.95;100.00
5522;BME280;2783;48.730;8.006;2023-09-19T03:20:29;99859.53;;;19.00;100.00
5522;BME280;2783;48.730;8.006;2023-09-19T03:22:55;99857.50;;;18.91;100.00
5522;BME280;2783;48.730;8.006;2023-09-19T03:25:22;99867.94;;;18.95;100.00
5522;BME280;2783;48.730;8.006;2023-09-19T03:27:48;99861.78;;;18.93;100.00
5522;BME280;2783;48.730;8.006;2023-09-19T03:30:13;99861.13;;;18.90;100.00
5522;BME280;2783;48.730;8.006;2023-09-19T03:32:46;99859.41;;;18.89;100.00
5522;BME280;2783;48.730;8.006;2023-09-19T03:35:12;99856.72;;;18.89;100.00
5522;BME280;2783;48.730;8.006;2023-09-19T03:37:43;99859.84;;;18.83;100.00
5522;BME280;2783;48.730;8.006;2023-09-19T03:40:10;99847.97;;;18.73;100.00
5522;BME280;2783;48.730;8.006;2023-09-19T03:42:39;99864.38;;;18.82;100.00
5522;BME280;2783;48.730;8.006;2023-09-19T03:45:05;99846.28;;;18.84;100.00
5522;BME280;2783;48.730;8.006;2023-09-19T03:47:31;99851.44;;;18.87;100.00
5522;BME280;2783;48.730;8.006;2023-09-19T03:49:56;99844.41;;;18.85;100.00
5522;BME280;2783;48.730;8.006;2023-09-19T03:52:22;99843.69;;;18.83;100.00
5522;BME280;2783;48.730;8.006;2023-09-19T03:54:47;99844.72;;;18.80;100.00
5522;BME280;2783;48.730;8.006;2023-09-19T03:57:13;99857.78;;;18.74;100.00
5522;BME280;2783;48.730;8.006;2023-09-19T03:59:41;99864.97;;;18.73;100.00
5522;BME280;2783;48.730;8.006;2023-09-19T04:02:08;99880.00;;;18.77;100.00
5522;BME280;2783;48.730;8.006;2023-09-19T04:04:37;99879.00;;;18.78;100.00
5522;BME280;2783;48.730;8.006;2023-09-19T04:07:03;99880.53;;;18.82;100.00
5522;BME280;2783;48.730;8.006;2023-09-19T04:09:28;99886.69;;;18.84;100.00
5522;BME280;2783;48.730;8.006;2023-09-19T04:11:53;99882.03;;;18.86;100.00
5522;BME280;2783;48.730;8.006;2023-09-19T04:14:19;99891.09;;;18.85;100.00
5522;BME280;2783;48.730;8.006;2023-09-19T04:16:44;99888.72;;;18.81;100.00
5522;BME280;2783;48.730;8.006;2023-09-19T04:19:09;99881.81;;;18.77;100.00
5522;BME280;2783;48.730;8.006;2023-09-19T04:21:35;99882.25;;;18.71;100.00
5522;BME280;2783;48.730;8.006;2023-09-19T04:24:00;99888.06;;;18.65;100.00
5522;BME280;2783;48.730;8.006;2023-09-19T04:26:26;99883.78;;;18.48;100.00
5522;BME280;2783;48.730;8.006;2023-09-19T04:28:51;99894.84;;;18.44;100.00
5522;BME280;2783;48.730;8.006;2023-09-19T04:31:17;99891.56;;;18.38;100.00
5522;BME280;2783;48.730;8.006;2023-09-19T04:33:43;99895.44;;;18.34;100.00
5522;BME280;2783;48.730;8.006;2023-09-19T04:36:09;99901.03;;;18.31;100.00
5522;BME280;2783;48.730;8.006;2023-09-19T04:38:35;99902.28;;;18.26;100.00
5522;BME280;2783;48.730;8.006;2023-09-19T04:41:00;99891.31;;;18.29;100.00
5522;BME280;2783;48.730;8.006;2023-09-19T04:43:26;99900.75;;;18.22;100.00
5522;BME280;2783;48.730;8.006;2023-09-19T04:45:51;99911.47;;;18.09;100.00
5522;BME280;2783;48.730;8.006;2023-09-19T04:48:23;99913.59;;;18.04;100.00
5522;BME280;2783;48.730;8.006;2023-09-19T04:50:49;99922.63;;;18.03;100.00
5522;BME280;2783;48.730;8.006;2023-09-19T04:53:15;99928.03;;;18.03;100.00
5522;BME280;2783;48.730;8.006;2023-09-19T04:55:42;99922.84;;;18.00;100.00
5522;BME280;2783;48.730;8.006;2023-09-19T04:58:08;99926.19;;;18.04;100.00
5522;BME280;2783;48.730;8.006;2023-09-19T05:00:33;99936.88;;;18.05;100.00
5522;BME280;2783;48.730;8.006;2023-09-19T05:03:00;99934.19;;;18.05;100.00
5522;BME280;2783;48.730;8.006;2023-09-19T05:05:26;99941.19;;;18.08;100.00
5522;BME280;2783;48.730;8.006;2023-09-19T05:07:52;99942.91;;;18.09;100.00
5522;BME280;2783;48.730;8.006;2023-09-19T05:10:19;99946.47;;;18.09;100.00
5522;BME280;2783;48.730;8.006;2023-09-19T05:12:45;99957.81;;;18.14;100.00
5522;BME280;2783;48.730;8.006;2023-09-19T05:15:13;99961.28;;;18.16;100.00
5522;BME280;2783;48.730;8.006;2023-09-19T05:17:47;99964.72;;;18.18;100.00
5522;BME280;2783;48.730;8.006;2023-09-19T05:20:13;99968.16;;;18.20;100.00
5522;BME280;2783;48.730;8.006;2023-09-19T05:22:58;99957.22;;;18.23;100.00
5522;BME280;2783;48.730;8.006;2023-09-19T05:25:27;99968.00;;;18.23;100.00
5522;BME280;2783;48.730;8.006;2023-09-19T05:27:56;99974.31;;;18.22;100.00
5522;BME280;2783;48.730;8.006;2023-09-19T05:30:23;99979.72;;;18.22;100.00
5522;BME280;2783;48.730;8.006;2023-09-19T05:32:48;99975.50;;;18.18;100.00
5522;BME280;2783;48.730;8.006;2023-09-19T05:35:14;99969.66;;;18.12;100.00
5522;BME280;2783;48.730;8.006;2023-09-19T05:37:39;99968.56;;;18.14;100.00
5522;BME280;2783;48.730;8.006;2023-09-19T05:40:05;99974.72;;;18.16;100.00
5522;BME280;2783;48.730;8.006;2023-09-19T05:42:32;99967.13;;;18.23;100.00
5522;BME280;2783;48.730;8.006;2023-09-19T05:44:58;99974.91;;;18.27;100.00
5522;BME280;2783;48.730;8.006;2023-09-19T05:47:23;99969.59;;;18.26;100.00
5522;BME280;2783;48.730;8.006;2023-09-19T05:49:50;99969.50;;;18.27;100.00
5522;BME280;2783;48.730;8.006;2023-09-19T05:52:16;99981.81;;;18.31;100.00
5522;BME280;2783;48.730;8.006;2023-09-19T05:54:43;99991.31;;;18.37;100.00
5522;BME280;2783;48.730;8.006;2023-09-19T05:57:08;99987.69;;;18.38;100.00
5522;BME280;2783;48.730;8.006;2023-09-19T05:59:35;99991.72;;;18.45;100.00
5522;BME280;2783;48.730;8.006;2023-09-19T06:02:01;99991.63;;;18.47;100.00
5522;BME280;2783;48.730;8.006;2023-09-19T06:04:26;99975.03;;;18.40;100.00
5522;BME280;2783;48.730;8.006;2023-09-19T06:06:52;99995.44;;;18.57;100.00
5522;BME280;2783;48.730;8.006;2023-09-19T06:09:17;99999.47;;;18.64;100.00
5522;BME280;2783;48.730;8.006;2023-09-19T06:11:44;100002.63;;;18.70;100.00
5522;BME280;2783;48.730;8.006;2023-09-19T06:14:09;100003.84;;;18.79;100.00
5522;BME280;2783;48.730;8.006;2023-09-19T06:16:36;100003.44;;;18.85;100.00
5522;BME280;2783;48.730;8.006;2023-09-19T06:19:03;99984.00;;;18.80;100.00
5522;BME280;2783;48.730;8.006;2023-09-19T06:21:28;100011.28;;;19.02;100.00
5522;BME280;2783;48.730;8.006;2023-09-19T06:23:54;100015.63;;;19.17;100.00
5522;BME280;2783;48.730;8.006;2023-09-19T06:26:20;100024.16;;;19.23;100.00
5522;BME280;2783;48.730;8.006;2023-09-19T06:28:45;100023.00;;;19.27;100.00
5522;BME280;2783;48.730;8.006;2023-09-19T06:31:10;100031.03;;;19.29;100.00
5522;BME280;2783;48.730;8.006;2023-09-19T06:33:37;100031.09;;;19.27;100.00
5522;BME280;2783;48.730;8.006;2023-09-19T06:36:06;100023.28;;;19.23;100.00
5522;BME280;2783;48.730;8.006;2023-09-19T06:38:32;100033.97;;;19.24;100.00
5522;BME280;2783;48.730;8.006;2023-09-19T06:41:00;100027.75;;;19.24;100.00
5522;BME280;2783;48.730;8.006;2023-09-19T06:43:26;100029.66;;;19.22;100.00
5522;BME280;2783;48.730;8.006;2023-09-19T06:45:53;100025.16;;;19.22;100.00
5522;BME280;2783;48.730;8.006;2023-09-19T06:48:20;100022.53;;;19.21;100.00
5522;BME280;2783;48.730;8.006;2023-09-19T06:50:46;100022.13;;;19.27;100.00
5522;BME280;2783;48.730;8.006;2023-09-19T06:53:13;100030.38;;;19.38;100.00
5522;BME280;2783;48.730;8.006;2023-09-19T06:55:39;100028.03;;;20.46;100.00
5522;BME280;2783;48.730;8.006;2023-09-19T06:58:05;100020.16;;;22.40;100.00
5522;BME280;2783;48.730;8.006;2023-09-19T07:00:31;100022.22;;;24.17;97.18
5522;BME280;2783;48.730;8.006;2023-09-19T07:03:03;100031.31;;;25.82;81.87
5522;BME280;2783;48.730;8.006;2023-09-19T07:05:34;100041.41;;;27.19;70.94
5522;BME280;2783;48.730;8.006;2023-09-19T07:08:03;100038.19;;;28.11;66.02
5522;BME280;2783;48.730;8.006;2023-09-19T07:10:28;100042.91;;;28.86;60.91
5522;BME280;2783;48.730;8.006;2023-09-19T07:13:05;100042.72;;;29.29;58.95
5522;BME280;2783;48.730;8.006;2023-09-19T07:15:38;100039.03;;;29.71;56.55
5522;BME280;2783;48.730;8.006;2023-09-19T07:18:13;100037.66;;;29.99;55.00
5522;BME280;2783;48.730;8.006;2023-09-19T07:20:40;100042.97;;;29.92;54.14
5522;BME280;2783;48.730;8.006;2023-09-19T07:23:15;100034.19;;;29.64;54.24
5522;BME280;2783;48.730;8.006;2023-09-19T07:25:40;100032.63;;;29.54;55.82
5522;BME280;2783;48.730;8.006;2023-09-19T07:28:06;100039.50;;;29.42;55.48
5522;BME280;2783;48.730;8.006;2023-09-19T07:30:32;100039.72;;;29.07;55.85
5522;BME280;2783;48.730;8.006;2023-09-19T07:33:00;100038.88;;;28.65;56.34
5522;BME280;2783;48.730;8.006;2023-09-19T07:35:28;100045.34;;;28.56;56.22
5522;BME280;2783;48.730;8.006;2023-09-19T07:37:53;100049.09;;;27.68;58.04
5522;BME280;2783;48.730;8.006;2023-09-19T07:40:19;100045.06;;;27.37;59.41
5522;BME280;2783;48.730;8.006;2023-09-19T07:42:48;100043.25;;;27.46;59.50
5522;BME280;2783;48.730;8.006;2023-09-19T07:45:16;100050.66;;;27.53;59.03
5522;BME280;2783;48.730;8.006;2023-09-19T07:47:45;100056.91;;;27.98;59.87
5522;BME280;2783;48.730;8.006;2023-09-19T07:50:12;100061.56;;;28.06;57.87
5522;BME280;2783;48.730;8.006;2023-09-19T07:52:37;100063.25;;;27.46;58.94
5522;BME280;2783;48.730;8.006;2023-09-19T07:55:05;100073.06;;;27.12;59.37
5522;BME280;2783;48.730;8.006;2023-09-19T07:57:36;100070.47;;;26.93;60.58
5522;BME280;2783;48.730;8.006;2023-09-19T08:00:02;100074.19;;;26.92;63.35
5522;BME280;2783;48.730;8.006;2023-09-19T08:02:34;100069.72;;;27.45;62.86
5522;BME280;2783;48.730;8.006;2023-09-19T08:04:59;100070.19;;;27.58;60.61
5522;BME280;2783;48.730;8.006;2023-09-19T08:07:26;100077.53;;;27.75;58.68
5522;BME280;2783;48.730;8.006;2023-09-19T08:09:51;100084.09;;;27.47;57.41
5522;BME280;2783;48.730;8.006;2023-09-19T08:12:17;100082.00;;;26.87;57.75
5522;BME280;2783;48.730;8.006;2023-09-19T08:14:42;100090.56;;;27.01;58.83
5522;BME280;2783;48.730;8.006;2023-09-19T08:17:08;100086.84;;;26.93;56.56
5522;BME280;2783;48.730;8.006;2023-09-19T08:19:34;100083.75;;;26.42;58.16
5522;BME280;2783;48.730;8.006;2023-09-19T08:21:59;100084.03;;;26.39;60.02
5522;BME280;2783;48.730;8.006;2023-09-19T08:24:27;100084.22;;;26.64;59.76
5522;BME280;2783;48.730;8.006;2023-09-19T08:26:54;100081.47;;;26.74;59.43
5522;BME280;2783;48.730;8.006;2023-09-19T08:29:20;100086.34;;;26.80;58.90
5522;BME280;2783;48.730;8.006;2023-09-19T08:31:46;100079.47;;;26.76;59.74
5522;BME280;2783;48.730;8.006;2023-09-19T08:34:15;100084.69;;;26.60;58.53
5522;BME280;2783;48.730;8.006;2023-09-19T08:36:40;100085.44;;;26.43;57.89
5522;BME280;2783;48.730;8.006;2023-09-19T08:39:08;100094.72;;;25.65;59.05
5522;BME280;2783;48.730;8.006;2023-09-19T08:41:34;100089.69;;;25.80;61.18
5522;BME280;2783;48.730;8.006;2023-09-19T08:44:00;100093.28;;;26.00;58.88
5522;BME280;2783;48.730;8.006;2023-09-19T08:46:30;100083.38;;;25.89;59.55
5522;BME280;2783;48.730;8.006;2023-09-19T08:49:09;100102.31;;;25.90;60.22
5522;BME280;2783;48.730;8.006;2023-09-19T08:51:43;100096.91;;;25.71;62.31
5522;BME280;2783;48.730;8.006;2023-09-19T08:54:22;100095.31;;;25.69;58.30
5522;BME280;2783;48.730;8.006;2023-09-19T08:56:53;100085.56;;;25.76;60.59
5522;BME280;2783;48.730;8.006;2023-09-19T08:59:22;100098.56;;;26.30;59.28
5522;BME280;2783;48.730;8.006;2023-09-19T09:01:53;100089.13;;;26.61;56.57
5522;BME280;2783;48.730;8.006;2023-09-19T09:04:19;100088.63;;;27.11;53.68
5522;BME280;2783;48.730;8.006;2023-09-19T09:06:45;100097.78;;;26.47;51.46
5522;BME280;2783;48.730;8.006;2023-09-19T09:09:15;100100.34;;;25.83;55.61
5522;BME280;2783;48.730;8.006;2023-09-19T09:11:40;100102.66;;;25.10;57.19
5522;BME280;2783;48.730;8.006;2023-09-19T09:14:09;100103.47;;;24.40;59.78
5522;BME280;2783;48.730;8.006;2023-09-19T09:16:35;100108.53;;;24.04;60.99
5522;BME280;2783;48.730;8.006;2023-09-19T09:19:00;100098.75;;;23.81;64.64
5522;BME280;2783;48.730;8.006;2023-09-19T09:21:26;100113.34;;;24.11;62.75
5522;BME280;2783;48.730;8.006;2023-09-19T09:23:52;100105.16;;;24.62;62.19
5522;BME280;2783;48.730;8.006;2023-09-19T09:26:41;100098.16;;;25.67;58.43
5522;BME280;2783;48.730;8.006;2023-09-19T09:29:07;100093.69;;;26.24;54.15
5522;BME280;2783;48.730;8.006;2023-09-19T09:31:33;100096.47;;;26.51;52.51
5522;BME280;2783;48.730;8.006;2023-09-19T09:33:58;100093.13;;;27.03;51.60
5522;BME280;2783;48.730;8.006;2023-09-19T09:36:36;100095.56;;;27.86;49.13
5522;BME280;2783;48.730;8.006;2023-09-19T09:39:02;100094.75;;;28.28;45.27
5522;BME280;2783;48.730;8.006;2023-09-19T09:41:41;100089.53;;;28.17;44.39
5522;BME280;2783;48.730;8.006;2023-09-19T09:44:14;100092.75;;;28.56;44.68
5522;BME280;2783;48.730;8.006;2023-09-19T09:46:44;100096.91;;;29.02;44.67
5522;BME280;2783;48.730;8.006;2023-09-19T09:49:26;100093.66;;;29.64;43.73
5522;BME280;2783;48.730;8.006;2023-09-19T09:52:02;100092.16;;;29.70;41.55
5522;BME280;2783;48.730;8.006;2023-09-19T09:54:34;100089.16;;;28.64;41.21
5522;BME280;2783;48.730;8.006;2023-09-19T09:57:05;100103.91;;;27.84;43.58
5522;BME280;2783;48.730;8.006;2023-09-19T10:02:13;100094.97;;;26.20;48.06
5522;BME280;2783;48.730;8.006;2023-09-19T10:04:39;100099.47;;;26.94;49.40
5522;BME280;2783;48.730;8.006;2023-09-19T10:07:30;100094.88;;;27.21;47.47
5522;BME280;2783;48.730;8.006;2023-09-19T10:10:03;100093.66;;;26.79;47.37
5522;BME280;2783;48.730;8.006;2023-09-19T10:12:46;100084.91;;;26.30;47.83
5522;BME280;2783;48.730;8.006;2023-09-19T10:15:15;100094.56;;;26.15;48.92
5522;BME280;2783;48.730;8.006;2023-09-19T10:17:44;100085.53;;;26.70;48.72
5522;BME280;2783;48.730;8.006;2023-09-19T10:20:16;100094.78;;;27.41;45.29
5522;BME280;2783;48.730;8.006;2023-09-19T10:22:50;100087.59;;;28.35;46.88
5522;BME280;2783;48.730;8.006;2023-09-19T10:25:27;100087.09;;;28.91;43.69
5522;BME280;2783;48.730;8.006;2023-09-19T10:27:54;100080.19;;;29.13;43.03
5522;BME280;2783;48.730;8.006;2023-09-19T10:30:22;100077.19;;;29.40;43.60
5522;BME280;2783;48.730;8.006;2023-09-19T10:32:58;100081.09;;;29.37;43.47
5522;BME280;2783;48.730;8.006;2023-09-19T10:35:25;100062.06;;;29.20;44.01
5522;BME280;2783;48.730;8.006;2023-09-19T10:37:51;100071.09;;;29.94;42.68
5522;BME280;2783;48.730;8.006;2023-09-19T10:40:20;100074.19;;;29.91;40.68
5522;BME280;2783;48.730;8.006;2023-09-19T10:42:48;100073.31;;;29.91;41.00
5522;BME280;2783;48.730;8.006;2023-09-19T10:45:17;100077.09;;;29.90;39.50
5522;BME280;2783;48.730;8.006;2023-09-19T10:47:45;100068.00;;;29.81;40.82
5522;BME280;2783;48.730;8.006;2023-09-19T10:50:20;100076.78;;;28.85;41.74
5522;BME280;2783;48.730;8.006;2023-09-19T10:52:47;100072.66;;;28.22;43.31
5522;BME280;2783;48.730;8.006;2023-09-19T10:55:19;100080.81;;;27.96;44.39
5522;BME280;2783;48.730;8.006;2023-09-19T10:57:46;100071.38;;;27.56;43.42
5522;BME280;2783;48.730;8.006;2023-09-19T11:00:12;100069.72;;;27.45;46.27
5522;BME280;2783;48.730;8.006;2023-09-19T11:05:41;100073.09;;;27.39;45.53
5522;BME280;2783;48.730;8.006;2023-09-19T11:08:10;100062.31;;;27.38;45.53
5522;BME280;2783;48.730;8.006;2023-09-19T11:10:47;100057.50;;;27.22;45.94
5522;BME280;2783;48.730;8.006;2023-09-19T11:13:32;100060.63;;;27.27;43.88
5522;BME280;2783;48.730;8.006;2023-09-19T11:24:28;100048.78;;;28.99;43.38
5522;BME280;2783;48.730;8.006;2023-09-19T11:27:15;100051.94;;;28.79;42.58
5522;BME280;2783;48.730;8.006;2023-09-19T11:29:43;100054.13;;;27.90;42.42
5522;BME280;2783;48.730;8.006;2023-09-19T11:32:08;100054.03;;;27.47;44.76
5522;BME280;2783;48.730;8.006;2023-09-19T11:34:42;100046.75;;;27.38;44.09
5522;BME280;2783;48.730;8.006;2023-09-19T11:39:37;100037.00;;;26.64;44.72
5522;BME280;2783;48.730;8.006;2023-09-19T11:45:06;100039.31;;;27.83;44.95
5522;BME280;2783;48.730;8.006;2023-09-19T11:47:32;100025.38;;;28.63;42.59
5522;BME280;2783;48.730;8.006;2023-09-19T11:50:01;100021.84;;;29.28;41.07
5522;BME280;2783;48.730;8.006;2023-09-19T11:52:28;100029.94;;;29.86;39.68
5522;BME280;2783;48.730;8.006;2023-09-19T11:55:00;100014.13;;;30.20;40.97
5522;BME280;2783;48.730;8.006;2023-09-19T11:57:28;100026.00;;;30.75;39.46
5522;BME280;2783;48.730;8.006;2023-09-19T11:59:55;100014.50;;;31.11;37.08
5522;BME280;2783;48.730;8.006;2023-09-19T12:02:50;100020.22;;;31.40;36.75
5522;BME280;2783;48.730;8.006;2023-09-19T12:05:28;100014.19;;;30.67;37.19
5522;BME280;2783;48.730;8.006;2023-09-19T12:07:54;100015.19;;;30.11;38.46
5522;BME280;2783;48.730;8.006;2023-09-19T12:10:19;100013.75;;;29.11;38.73
5522;BME280;2783;48.730;8.006;2023-09-19T12:12:48;100016.78;;;28.32;41.15
5522;BME280;2783;48.730;8.006;2023-09-19T12:15:14;99999.09;;;27.93;42.18
5522;BME280;2783;48.730;8.006;2023-09-19T12:17:41;100002.81;;;28.43;40.48
5522;BME280;2783;48.730;8.006;2023-09-19T12:20:10;99998.75;;;28.89;41.56
5522;BME280;2783;48.730;8.006;2023-09-19T12:22:43;99998.63;;;28.99;41.13
5522;BME280;2783;48.730;8.006;2023-09-19T12:25:09;99996.66;;;28.41;41.30
5522;BME280;2783;48.730;8.006;2023-09-19T12:27:43;99999.34;;;27.82;42.26
5522;BME280;2783;48.730;8.006;2023-09-19T12:30:10;100001.75;;;27.15;42.59
5522;BME280;2783;48.730;8.006;2023-09-19T12:32:39;99999.59;;;26.74;43.54
5522;BME280;2783;48.730;8.006;2023-09-19T12:35:06;100003.22;;;26.65;44.04
5522;BME280;2783;48.730;8.006;2023-09-19T12:37:51;99987.22;;;26.52;45.75
5522;BME280;2783;48.730;8.006;2023-09-19T12:40:21;99993.72;;;27.13;44.53
5522;BME280;2783;48.730;8.006;2023-09-19T12:42:56;99992.41;;;27.70;43.19
5522;BME280;2783;48.730;8.006;2023-09-19T12:45:23;99991.34;;;27.46;42.35
5522;BME280;2783;48.730;8.006;2023-09-19T12:51:19;99985.75;;;27.90;42.94
5522;BME280;2783;48.730;8.006;2023-09-19T12:53:57;99985.22;;;28.20;42.70
5522;BME280;2783;48.730;8.006;2023-09-19T12:56:22;99978.00;;;28.71;40.83
5522;BME280;2783;48.730;8.006;2023-09-19T12:58:58;99977.22;;;29.02;39.92
5522;BME280;2783;48.730;8.006;2023-09-19T13:01:28;99975.75;;;29.40;40.05
5522;BME280;2783;48.730;8.006;2023-09-19T13:04:21;99968.72;;;29.94;38.81
5522;BME280;2783;48.730;8.006;2023-09-19T13:07:06;99974.00;;;30.19;39.88
5522;BME280;2783;48.730;8.006;2023-09-19T13:09:34;99967.63;;;30.35;39.81
5522;BME280;2783;48.730;8.006;2023-09-19T13:12:00;99966.75;;;30.42;38.09
5522;BME280;2783;48.730;8.006;2023-09-19T13:14:28;99963.03;;;30.27;37.18
5522;BME280;2783;48.730;8.006;2023-09-19T13:17:04;99966.38;;;29.75;38.02
5522;BME280;2783;48.730;8.006;2023-09-19T13:19:44;99962.41;;;29.29;38.03
5522;BME280;2783;48.730;8.006;2023-09-19T13:22:39;99956.06;;;29.12;39.98
5522;BME280;2783;48.730;8.006;2023-09-19T13:25:11;99960.78;;;29.02;39.80
5522;BME280;2783;48.730;8.006;2023-09-19T13:27:44;99959.31;;;29.24;40.51
5522;BME280;2783;48.730;8.006;2023-09-19T13:30:14;99964.44;;;29.11;40.93
5522;BME280;2783;48.730;8.006;2023-09-19T13:32:40;99955.84;;;29.06;39.84
5522;BME280;2783;48.730;8.006;2023-09-19T13:35:06;99946.28;;;29.18;41.87
5522;BME280;2783;48.730;8.006;2023-09-19T13:37:35;99954.84;;;29.15;39.44
5522;BME280;2783;48.730;8.006;2023-09-19T13:40:07;99956.13;;;28.87;40.28
5522;BME280;2783;48.730;8.006;2023-09-19T13:42:33;99948.19;;;28.60;39.97
5522;BME280;2783;48.730;8.006;2023-09-19T13:44:59;99947.88;;;28.37;40.04
5522;BME280;2783;48.730;8.006;2023-09-19T13:47:25;99944.16;;;28.12;41.06
5522;BME280;2783;48.730;8.006;2023-09-19T13:49:52;99942.03;;;27.98;41.90
5522;BME280;2783;48.730;8.006;2023-09-19T13:52:19;99939.03;;;28.09;41.19
5522;BME280;2783;48.730;8.006;2023-09-19T13:54:44;99940.75;;;28.10;40.61
5522;BME280;2783;48.730;8.006;2023-09-19T13:57:10;99936.63;;;28.06;41.90
5522;BME280;2783;48.730;8.006;2023-09-19T13:59:35;99928.75;;;28.03;41.55